sensor_id;sensor_type;location;lat;lon;timestamp;P1;durP1;ratioP1;P2;durP2;ratioP2
7051;SDS011;3567;52.444;13.556;2024-03-02T00:00:22;88.22;;;45.33;;
7051;SDS011;3567;52.444;13.556;2024-03-02T00:02:49;90.47;;;46.55;;
7051;SDS011;3567;52.444;13.556;2024-03-02T00:05:19;81.38;;;46.95;;
7051;SDS011;3567;52.444;13.556;2024-03-02T00:07:46;78.32;;;44.17;;
7051;SDS011;3567;52.444;13.556;2024-03-02T00:10:22;94.03;;;46.42;;
7051;SDS011;3567;52.444;13.556;2024-03-02T00:12:54;89.07;;;47.38;;
7051;SDS011;3567;52.444;13.556;2024-03-02T00:18:19;79.00;;;44.33;;
7051;SDS011;3567;52.444;13.556;2024-03-02T00:20:46;88.30;;;46.65;;
7051;SDS011;3567;52.444;13.556;2024-03-02T00:23:14;80.97;;;45.67;;
7051;SDS011;3567;52.444;13.556;2024-03-02T00:25:41;86.95;;;45.22;;
7051;SDS011;3567;52.444;13.556;2024-03-02T00:28:11;78.53;;;43.20;;
7051;SDS011;3567;52.444;13.556;2024-03-02T00:31:01;77.90;;;41.90;;
7051;SDS011;3567;52.444;13.556;2024-03-02T00:33:33;83.90;;;44.30;;
7051;SDS011;3567;52.444;13.556;2024-03-02T00:36:07;74.80;;;43.88;;
7051;SDS011;3567;52.444;13.556;2024-03-02T00:38:33;83.15;;;46.30;;
7051;SDS011;3567;52.444;13.556;2024-03-02T00:41:08;78.30;;;45.88;;
7051;SDS011;3567;52.444;13.556;2024-03-02T00:43:42;64.85;;;39.90;;
7051;SDS011;3567;52.444;13.556;2024-03-02T00:46:36;67.07;;;39.55;;
7051;SDS011;3567;52.444;13.556;2024-03-02T00:49:03;68.57;;;41.35;;
7051;SDS011;3567;52.444;13.556;2024-03-02T00:51:31;90.25;;;46.72;;
7051;SDS011;3567;52.444;13.556;2024-03-02T00:54:01;81.90;;;44.22;;
7051;SDS011;3567;52.444;13.556;2024-03-02T00:56:29;86.40;;;46.60;;
7051;SDS011;3567;52.444;13.556;2024-03-02T00:58:55;80.43;;;45.13;;
7051;SDS011;3567;52.444;13.556;2024-03-02T01:01:20;84.07;;;46.55;;
7051;SDS011;3567;52.444;13.556;2024-03-02T01:03:46;80.38;;;47.45;;
7051;SDS011;3567;52.444;13.556;2024-03-02T01:06:11;80.38;;;45.50;;
7051;SDS011;3567;52.444;13.556;2024-03-02T01:11:04;76.72;;;45.25;;
7051;SDS011;3567;52.444;13.556;2024-03-02T01:13:30;82.50;;;45.72;;
7051;SDS011;3567;52.444;13.556;2024-03-02T01:15:56;87.38;;;46.08;;
7051;SDS011;3567;52.444;13.556;2024-03-02T01:18:21;87.63;;;47.53;;
7051;SDS011;3567;52.444;13.556;2024-03-02T01:20:47;88.95;;;45.60;;
7051;SDS011;3567;52.444;13.556;2024-03-02T01:23:13;76.18;;;44.85;;
7051;SDS011;3567;52.444;13.556;2024-03-02T01:25:39;82.30;;;43.80;;
7051;SDS011;3567;52.444;13.556;2024-03-02T01:28:04;89.93;;;46.78;;
7051;SDS011;3567;52.444;13.556;2024-03-02T01:30:30;84.80;;;47.67;;
7051;SDS011;3567;52.444;13.556;2024-03-02T01:32:55;85.50;;;47.35;;
7051;SDS011;3567;52.444;13.556;2024-03-02T01:35:22;75.85;;;46.40;;
7051;SDS011;3567;52.444;13.556;2024-03-02T01:37:47;85.65;;;47.08;;
7051;SDS011;3567;52.444;13.556;2024-03-02T01:40:12;90.30;;;49.63;;
7051;SDS011;3567;52.444;13.556;2024-03-02T01:42:38;97.68;;;49.70;;
7051;SDS011;3567;52.444;13.556;2024-03-02T01:45:07;95.60;;;51.85;;
7051;SDS011;3567;52.444;13.556;2024-03-02T01:47:34;79.55;;;46.03;;
7051;SDS011;3567;52.444;13.556;2024-03-02T01:50:00;97.00;;;49.35;;
7051;SDS011;3567;52.444;13.556;2024-03-02T01:52:26;80.50;;;48.10;;
7051;SDS011;3567;52.444;13.556;2024-03-02T01:54:52;87.45;;;48.65;;
7051;SDS011;3567;52.444;13.556;2024-03-02T01:57:17;100.93;;;51.92;;
7051;SDS011;3567;52.444;13.556;2024-03-02T01:59:43;78.85;;;46.90;;
7051;SDS011;3567;52.444;13.556;2024-03-02T02:02:08;105.82;;;49.83;;
7051;SDS011;3567;52.444;13.556;2024-03-02T02:04:34;102.97;;;50.85;;
7051;SDS011;3567;52.444;13.556;2024-03-02T02:06:59;82.78;;;45.55;;
7051;SDS011;3567;52.444;13.556;2024-03-02T02:09:25;84.07;;;46.22;;
7051;SDS011;3567;52.444;13.556;2024-03-02T02:11:50;76.15;;;43.20;;
7051;SDS011;3567;52.444;13.556;2024-03-02T02:14:16;84.25;;;47.47;;
7051;SDS011;3567;52.444;13.556;2024-03-02T02:16:42;70.40;;;42.90;;
7051;SDS011;3567;52.444;13.556;2024-03-02T02:19:07;92.03;;;46.83;;
7051;SDS011;3567;52.444;13.556;2024-03-02T02:21:33;79.15;;;44.33;;
7051;SDS011;3567;52.444;13.556;2024-03-02T02:23:58;92.18;;;51.00;;
7051;SDS011;3567;52.444;13.556;2024-03-02T02:26:24;117.38;;;55.50;;
7051;SDS011;3567;52.444;13.556;2024-03-02T02:28:50;122.65;;;57.95;;
7051;SDS011;3567;52.444;13.556;2024-03-02T02:31:15;118.28;;;58.63;;
7051;SDS011;3567;52.444;13.556;2024-03-02T02:33:41;125.15;;;59.28;;
7051;SDS011;3567;52.444;13.556;2024-03-02T02:36:07;141.32;;;60.47;;
7051;SDS011;3567;52.444;13.556;2024-03-02T02:38:33;153.43;;;64.60;;
7051;SDS011;3567;52.444;13.556;2024-03-02T02:41:01;138.65;;;62.75;;
7051;SDS011;3567;52.444;13.556;2024-03-02T02:43:27;133.13;;;64.00;;
7051;SDS011;3567;52.444;13.556;2024-03-02T02:45:52;149.98;;;65.15;;
7051;SDS011;3567;52.444;13.556;2024-03-02T02:48:18;131.52;;;62.88;;
7051;SDS011;3567;52.444;13.556;2024-03-02T02:50:43;147.32;;;66.45;;
7051;SDS011;3567;52.444;13.556;2024-03-02T02:53:08;146.93;;;63.00;;
7051;SDS011;3567;52.444;13.556;2024-03-02T02:55:35;148.18;;;64.60;;
7051;SDS011;3567;52.444;13.556;2024-03-02T02:58:05;137.40;;;61.90;;
7051;SDS011;3567;52.444;13.556;2024-03-02T03:00:31;137.73;;;63.50;;
7051;SDS011;3567;52.444;13.556;2024-03-02T03:02:56;140.60;;;63.88;;
7051;SDS011;3567;52.444;13.556;2024-03-02T03:05:22;142.68;;;64.97;;
7051;SDS011;3567;52.444;13.556;2024-03-02T03:07:47;130.90;;;61.80;;
7051;SDS011;3567;52.444;13.556;2024-03-02T03:10:14;138.32;;;61.35;;
7051;SDS011;3567;52.444;13.556;2024-03-02T03:12:40;140.40;;;62.85;;
7051;SDS011;3567;52.444;13.556;2024-03-02T03:15:07;146.43;;;66.10;;
7051;SDS011;3567;52.444;13.556;2024-03-02T03:17:34;143.25;;;63.15;;
7051;SDS011;3567;52.444;13.556;2024-03-02T03:20:00;131.88;;;59.97;;
7051;SDS011;3567;52.444;13.556;2024-03-02T03:22:26;129.55;;;60.47;;
7051;SDS011;3567;52.444;13.556;2024-03-02T03:24:52;135.77;;;61.03;;
7051;SDS011;3567;52.444;13.556;2024-03-02T03:27:17;118.18;;;59.92;;
7051;SDS011;3567;52.444;13.556;2024-03-02T03:29:43;132.35;;;59.78;;
7051;SDS011;3567;52.444;13.556;2024-03-02T03:32:08;131.38;;;59.10;;
7051;SDS011;3567;52.444;13.556;2024-03-02T03:34:34;126.10;;;58.20;;
7051;SDS011;3567;52.444;13.556;2024-03-02T03:37:00;126.57;;;58.58;;
7051;SDS011;3567;52.444;13.556;2024-03-02T03:39:25;128.00;;;58.97;;
7051;SDS011;3567;52.444;13.556;2024-03-02T03:41:50;118.35;;;56.08;;
7051;SDS011;3567;52.444;13.556;2024-03-02T03:44:16;119.80;;;55.85;;
7051;SDS011;3567;52.444;13.556;2024-03-02T03:46:41;122.55;;;56.50;;
7051;SDS011;3567;52.444;13.556;2024-03-02T03:49:07;113.22;;;55.88;;
7051;SDS011;3567;52.444;13.556;2024-03-02T03:51:33;117.43;;;55.78;;
7051;SDS011;3567;52.444;13.556;2024-03-02T03:53:58;112.47;;;54.78;;
7051;SDS011;3567;52.444;13.556;2024-03-02T03:56:23;112.43;;;54.65;;
7051;SDS011;3567;52.444;13.556;2024-03-02T03:58:49;112.25;;;56.13;;
7051;SDS011;3567;52.444;13.556;2024-03-02T04:01:14;100.80;;;54.85;;
7051;SDS011;3567;52.444;13.556;2024-03-02T04:03:39;113.22;;;54.58;;
7051;SDS011;3567;52.444;13.556;2024-03-02T04:06:05;105.25;;;52.90;;
7051;SDS011;3567;52.444;13.556;2024-03-02T04:08:30;119.63;;;52.97;;
7051;SDS011;3567;52.444;13.556;2024-03-02T04:10:55;110.15;;;54.72;;
7051;SDS011;3567;52.444;13.556;2024-03-02T04:13:21;106.70;;;52.42;;
7051;SDS011;3567;52.444;13.556;2024-03-02T04:15:46;100.75;;;51.65;;
7051;SDS011;3567;52.444;13.556;2024-03-02T04:18:12;104.90;;;51.97;;
7051;SDS011;3567;52.444;13.556;2024-03-02T04:20:37;101.35;;;52.40;;
7051;SDS011;3567;52.444;13.556;2024-03-02T04:23:02;95.85;;;52.53;;
7051;SDS011;3567;52.444;13.556;2024-03-02T04:25:28;113.63;;;53.40;;
7051;SDS011;3567;52.444;13.556;2024-03-02T04:27:53;104.18;;;55.05;;
7051;SDS011;3567;52.444;13.556;2024-03-02T04:30:19;106.68;;;53.30;;
7051;SDS011;3567;52.444;13.556;2024-03-02T04:32:44;102.68;;;55.22;;
7051;SDS011;3567;52.444;13.556;2024-03-02T04:35:13;104.18;;;51.97;;
7051;SDS011;3567;52.444;13.556;2024-03-02T04:37:39;100.82;;;50.80;;
7051;SDS011;3567;52.444;13.556;2024-03-02T04:40:05;105.65;;;49.03;;
7051;SDS011;3567;52.444;13.556;2024-03-02T04:42:33;87.65;;;49.88;;
7051;SDS011;3567;52.444;13.556;2024-03-02T04:44:59;95.05;;;52.13;;
7051;SDS011;3567;52.444;13.556;2024-03-02T04:47:24;101.50;;;52.00;;
7051;SDS011;3567;52.444;13.556;2024-03-02T04:49:50;92.72;;;49.42;;
7051;SDS011;3567;52.444;13.556;2024-03-02T04:52:15;98.13;;;52.40;;
7051;SDS011;3567;52.444;13.556;2024-03-02T04:54:41;94.70;;;50.08;;
7051;SDS011;3567;52.444;13.556;2024-03-02T04:57:24;86.22;;;46.88;;
7051;SDS011;3567;52.444;13.556;2024-03-02T04:59:50;100.97;;;51.00;;
7051;SDS011;3567;52.444;13.556;2024-03-02T05:02:15;102.18;;;50.60;;
7051;SDS011;3567;52.444;13.556;2024-03-02T05:04:40;103.97;;;50.90;;
7051;SDS011;3567;52.444;13.556;2024-03-02T05:07:06;109.30;;;52.67;;
7051;SDS011;3567;52.444;13.556;2024-03-02T05:09:32;99.35;;;50.70;;
7051;SDS011;3567;52.444;13.556;2024-03-02T05:11:58;101.57;;;51.85;;
7051;SDS011;3567;52.444;13.556;2024-03-02T05:14:41;103.70;;;55.17;;
7051;SDS011;3567;52.444;13.556;2024-03-02T05:17:07;112.10;;;54.67;;
7051;SDS011;3567;52.444;13.556;2024-03-02T05:19:32;98.15;;;51.08;;
7051;SDS011;3567;52.444;13.556;2024-03-02T05:21:57;102.38;;;51.97;;
7051;SDS011;3567;52.444;13.556;2024-03-02T05:24:23;94.88;;;50.00;;
7051;SDS011;3567;52.444;13.556;2024-03-02T05:26:48;96.32;;;52.95;;
7051;SDS011;3567;52.444;13.556;2024-03-02T05:29:14;98.15;;;49.42;;
7051;SDS011;3567;52.444;13.556;2024-03-02T05:31:39;106.50;;;53.42;;
7051;SDS011;3567;52.444;13.556;2024-03-02T05:34:05;103.15;;;51.95;;
7051;SDS011;3567;52.444;13.556;2024-03-02T05:36:31;101.43;;;51.30;;
7051;SDS011;3567;52.444;13.556;2024-03-02T05:38:56;96.78;;;50.85;;
7051;SDS011;3567;52.444;13.556;2024-03-02T05:41:22;101.68;;;51.10;;
7051;SDS011;3567;52.444;13.556;2024-03-02T05:43:47;105.32;;;52.72;;
7051;SDS011;3567;52.444;13.556;2024-03-02T05:46:13;93.35;;;51.28;;
7051;SDS011;3567;52.444;13.556;2024-03-02T05:48:38;96.05;;;51.30;;
7051;SDS011;3567;52.444;13.556;2024-03-02T05:51:03;99.10;;;52.67;;
7051;SDS011;3567;52.444;13.556;2024-03-02T05:53:29;102.10;;;53.03;;
7051;SDS011;3567;52.444;13.556;2024-03-02T05:55:54;91.13;;;49.70;;
7051;SDS011;3567;52.444;13.556;2024-03-02T05:58:21;92.90;;;49.33;;
7051;SDS011;3567;52.444;13.556;2024-03-02T06:01:13;109.40;;;52.42;;
7051;SDS011;3567;52.444;13.556;2024-03-02T06:03:38;103.88;;;54.20;;
7051;SDS011;3567;52.444;13.556;2024-03-02T06:06:03;108.63;;;54.88;;
7051;SDS011;3567;52.444;13.556;2024-03-02T06:08:29;86.10;;;50.70;;
7051;SDS011;3567;52.444;13.556;2024-03-02T06:10:54;103.75;;;53.13;;
7051;SDS011;3567;52.444;13.556;2024-03-02T06:13:21;98.95;;;52.97;;
7051;SDS011;3567;52.444;13.556;2024-03-02T06:15:46;105.53;;;51.85;;
7051;SDS011;3567;52.444;13.556;2024-03-02T06:18:12;106.68;;;56.13;;
7051;SDS011;3567;52.444;13.556;2024-03-02T06:20:37;114.30;;;56.42;;
7051;SDS011;3567;52.444;13.556;2024-03-02T06:23:03;100.88;;;54.35;;
7051;SDS011;3567;52.444;13.556;2024-03-02T06:25:29;116.05;;;57.45;;
7051;SDS011;3567;52.444;13.556;2024-03-02T06:27:54;106.55;;;55.70;;
7051;SDS011;3567;52.444;13.556;2024-03-02T06:30:19;106.40;;;54.35;;
7051;SDS011;3567;52.444;13.556;2024-03-02T06:32:45;108.32;;;54.58;;
7051;SDS011;3567;52.444;13.556;2024-03-02T06:35:10;103.53;;;54.88;;
7051;SDS011;3567;52.444;13.556;2024-03-02T06:37:38;104.20;;;53.53;;
7051;SDS011;3567;52.444;13.556;2024-03-02T06:40:05;108.03;;;56.10;;
7051;SDS011;3567;52.444;13.556;2024-03-02T06:42:32;109.35;;;55.28;;
7051;SDS011;3567;52.444;13.556;2024-03-02T06:44:58;111.68;;;55.70;;
7051;SDS011;3567;52.444;13.556;2024-03-02T06:47:24;98.57;;;52.72;;
7051;SDS011;3567;52.444;13.556;2024-03-02T06:49:49;101.07;;;52.67;;
7051;SDS011;3567;52.444;13.556;2024-03-02T06:52:15;104.22;;;53.88;;
7051;SDS011;3567;52.444;13.556;2024-03-02T06:54:41;107.35;;;52.55;;
7051;SDS011;3567;52.444;13.556;2024-03-02T06:57:06;104.50;;;53.95;;
7051;SDS011;3567;52.444;13.556;2024-03-02T06:59:31;101.10;;;51.67;;
7051;SDS011;3567;52.444;13.556;2024-03-02T07:01:58;94.22;;;53.10;;
7051;SDS011;3567;52.444;13.556;2024-03-02T07:04:24;96.28;;;52.72;;
7051;SDS011;3567;52.444;13.556;2024-03-02T07:06:49;103.50;;;51.47;;
7051;SDS011;3567;52.444;13.556;2024-03-02T07:09:14;92.78;;;51.55;;
7051;SDS011;3567;52.444;13.556;2024-03-02T07:11:39;101.18;;;53.72;;
7051;SDS011;3567;52.444;13.556;2024-03-02T07:14:05;100.88;;;55.85;;
7051;SDS011;3567;52.444;13.556;2024-03-02T07:16:31;96.65;;;52.90;;
7051;SDS011;3567;52.444;13.556;2024-03-02T07:18:58;97.15;;;52.65;;
7051;SDS011;3567;52.444;13.556;2024-03-02T07:21:24;100.68;;;55.45;;
7051;SDS011;3567;52.444;13.556;2024-03-02T07:23:49;105.45;;;54.55;;
7051;SDS011;3567;52.444;13.556;2024-03-02T07:26:15;102.47;;;52.42;;
7051;SDS011;3567;52.444;13.556;2024-03-02T07:28:41;96.82;;;52.55;;
7051;SDS011;3567;52.444;13.556;2024-03-02T07:31:07;95.32;;;52.95;;
7051;SDS011;3567;52.444;13.556;2024-03-02T07:33:33;102.90;;;53.00;;
7051;SDS011;3567;52.444;13.556;2024-03-02T07:35:58;95.63;;;51.90;;
7051;SDS011;3567;52.444;13.556;2024-03-02T07:38:25;99.93;;;53.28;;
7051;SDS011;3567;52.444;13.556;2024-03-02T07:40:51;104.47;;;55.08;;
7051;SDS011;3567;52.444;13.556;2024-03-02T07:43:18;111.97;;;56.95;;
7051;SDS011;3567;52.444;13.556;2024-03-02T07:45:47;95.57;;;53.25;;
7051;SDS011;3567;52.444;13.556;2024-03-02T07:48:13;93.13;;;50.00;;
7051;SDS011;3567;52.444;13.556;2024-03-02T07:50:38;99.00;;;54.78;;
7051;SDS011;3567;52.444;13.556;2024-03-02T07:53:04;90.40;;;52.80;;
7051;SDS011;3567;52.444;13.556;2024-03-02T07:55:30;88.72;;;51.30;;
7051;SDS011;3567;52.444;13.556;2024-03-02T07:57:59;86.85;;;50.47;;
7051;SDS011;3567;52.444;13.556;2024-03-02T08:00:25;96.47;;;54.47;;
7051;SDS011;3567;52.444;13.556;2024-03-02T08:02:51;91.05;;;50.55;;
7051;SDS011;3567;52.444;13.556;2024-03-02T08:05:17;86.15;;;51.47;;
7051;SDS011;3567;52.444;13.556;2024-03-02T08:07:44;90.70;;;50.92;;
7051;SDS011;3567;52.444;13.556;2024-03-02T08:10:10;86.38;;;49.88;;
7051;SDS011;3567;52.444;13.556;2024-03-02T08:12:35;93.18;;;51.65;;
7051;SDS011;3567;52.444;13.556;2024-03-02T08:15:01;84.15;;;49.40;;
7051;SDS011;3567;52.444;13.556;2024-03-02T08:17:26;93.32;;;49.42;;
7051;SDS011;3567;52.444;13.556;2024-03-02T08:19:52;94.90;;;52.53;;
7051;SDS011;3567;52.444;13.556;2024-03-02T08:22:18;96.45;;;51.38;;
7051;SDS011;3567;52.444;13.556;2024-03-02T08:24:43;96.68;;;51.97;;
7051;SDS011;3567;52.444;13.556;2024-03-02T08:27:08;82.95;;;50.03;;
7051;SDS011;3567;52.444;13.556;2024-03-02T08:29:34;79.15;;;48.80;;
7051;SDS011;3567;52.444;13.556;2024-03-02T08:32:00;87.97;;;50.20;;
7051;SDS011;3567;52.444;13.556;2024-03-02T08:34:25;78.88;;;47.90;;
7051;SDS011;3567;52.444;13.556;2024-03-02T08:36:50;78.25;;;47.13;;
7051;SDS011;3567;52.444;13.556;2024-03-02T08:39:16;85.05;;;50.53;;
7051;SDS011;3567;52.444;13.556;2024-03-02T08:41:43;78.35;;;47.97;;
7051;SDS011;3567;52.444;13.556;2024-03-02T08:44:09;68.35;;;43.47;;
7051;SDS011;3567;52.444;13.556;2024-03-02T08:46:35;71.85;;;44.00;;
7051;SDS011;3567;52.444;13.556;2024-03-02T08:49:01;75.85;;;45.40;;
7051;SDS011;3567;52.444;13.556;2024-03-02T08:51:26;64.32;;;43.97;;
7051;SDS011;3567;52.444;13.556;2024-03-02T08:53:51;66.57;;;41.70;;
7051;SDS011;3567;52.444;13.556;2024-03-02T08:56:17;71.53;;;44.38;;
7051;SDS011;3567;52.444;13.556;2024-03-02T08:58:42;71.18;;;42.97;;
7051;SDS011;3567;52.444;13.556;2024-03-02T09:01:09;69.78;;;43.17;;
7051;SDS011;3567;52.444;13.556;2024-03-02T09:03:35;66.30;;;42.13;;
7051;SDS011;3567;52.444;13.556;2024-03-02T09:06:00;71.18;;;43.25;;
7051;SDS011;3567;52.444;13.556;2024-03-02T09:08:26;63.42;;;42.80;;
7051;SDS011;3567;52.444;13.556;2024-03-02T09:10:51;66.43;;;42.45;;
7051;SDS011;3567;52.444;13.556;2024-03-02T09:13:17;59.20;;;41.42;;
7051;SDS011;3567;52.444;13.556;2024-03-02T09:15:43;61.50;;;38.20;;
7051;SDS011;3567;52.444;13.556;2024-03-02T09:18:09;59.70;;;38.92;;
7051;SDS011;3567;52.444;13.556;2024-03-02T09:20:35;57.92;;;37.72;;
7051;SDS011;3567;52.444;13.556;2024-03-02T09:23:00;54.83;;;37.95;;
7051;SDS011;3567;52.444;13.556;2024-03-02T09:25:26;58.05;;;38.15;;
7051;SDS011;3567;52.444;13.556;2024-03-02T09:27:51;59.05;;;39.00;;
7051;SDS011;3567;52.444;13.556;2024-03-02T09:30:16;56.75;;;36.60;;
7051;SDS011;3567;52.444;13.556;2024-03-02T09:32:42;51.92;;;35.80;;
7051;SDS011;3567;52.444;13.556;2024-03-02T09:35:07;56.72;;;36.83;;
7051;SDS011;3567;52.444;13.556;2024-03-02T09:37:34;60.50;;;37.55;;
7051;SDS011;3567;52.444;13.556;2024-03-02T09:39:59;60.45;;;35.28;;
7051;SDS011;3567;52.444;13.556;2024-03-02T09:42:25;56.78;;;35.20;;
7051;SDS011;3567;52.444;13.556;2024-03-02T09:44:51;47.00;;;31.95;;
7051;SDS011;3567;52.444;13.556;2024-03-02T09:47:17;47.00;;;32.78;;
7051;SDS011;3567;52.444;13.556;2024-03-02T09:49:42;44.63;;;32.17;;
7051;SDS011;3567;52.444;13.556;2024-03-02T09:52:08;45.08;;;31.17;;
7051;SDS011;3567;52.444;13.556;2024-03-02T09:54:35;42.70;;;30.27;;
7051;SDS011;3567;52.444;13.556;2024-03-02T09:57:04;40.80;;;29.40;;
7051;SDS011;3567;52.444;13.556;2024-03-02T09:59:29;46.15;;;32.67;;
7051;SDS011;3567;52.444;13.556;2024-03-02T10:01:55;43.50;;;28.67;;
7051;SDS011;3567;52.444;13.556;2024-03-02T10:04:28;32.55;;;26.45;;
7051;SDS011;3567;52.444;13.556;2024-03-02T10:07:17;37.63;;;26.50;;
7051;SDS011;3567;52.444;13.556;2024-03-02T10:09:47;34.03;;;25.73;;
7051;SDS011;3567;52.444;13.556;2024-03-02T10:12:14;33.15;;;24.90;;
7051;SDS011;3567;52.444;13.556;2024-03-02T10:14:41;33.10;;;26.05;;
7051;SDS011;3567;52.444;13.556;2024-03-02T10:17:08;32.35;;;23.55;;
7051;SDS011;3567;52.444;13.556;2024-03-02T10:19:34;29.92;;;22.15;;
7051;SDS011;3567;52.444;13.556;2024-03-02T10:22:02;29.50;;;22.17;;
7051;SDS011;3567;52.444;13.556;2024-03-02T10:24:34;34.50;;;22.27;;
7051;SDS011;3567;52.444;13.556;2024-03-02T10:27:10;32.70;;;23.27;;
7051;SDS011;3567;52.444;13.556;2024-03-02T10:29:41;28.20;;;20.92;;
7051;SDS011;3567;52.444;13.556;2024-03-02T10:32:09;28.42;;;21.48;;
7051;SDS011;3567;52.444;13.556;2024-03-02T10:34:42;30.35;;;21.15;;
7051;SDS011;3567;52.444;13.556;2024-03-02T10:37:10;29.10;;;22.23;;
7051;SDS011;3567;52.444;13.556;2024-03-02T10:39:36;32.53;;;22.65;;
7051;SDS011;3567;52.444;13.556;2024-03-02T10:42:04;29.33;;;22.30;;
7051;SDS011;3567;52.444;13.556;2024-03-02T10:44:31;26.75;;;21.20;;
7051;SDS011;3567;52.444;13.556;2024-03-02T10:46:57;29.90;;;23.13;;
7051;SDS011;3567;52.444;13.556;2024-03-02T10:49:25;29.88;;;21.88;;
7051;SDS011;3567;52.444;13.556;2024-03-02T10:51:52;36.63;;;24.67;;
7051;SDS011;3567;52.444;13.556;2024-03-02T10:54:18;32.45;;;22.63;;
7051;SDS011;3567;52.444;13.556;2024-03-02T10:56:44;31.50;;;22.95;;
7051;SDS011;3567;52.444;13.556;2024-03-02T11:01:36;27.63;;;21.45;;
7051;SDS011;3567;52.444;13.556;2024-03-02T11:04:04;30.65;;;22.85;;
7051;SDS011;3567;52.444;13.556;2024-03-02T11:06:33;31.70;;;22.60;;
7051;SDS011;3567;52.444;13.556;2024-03-02T11:09:03;28.45;;;21.20;;
7051;SDS011;3567;52.444;13.556;2024-03-02T11:11:33;29.23;;;21.33;;
7051;SDS011;3567;52.444;13.556;2024-03-02T11:14:01;35.00;;;23.65;;
7051;SDS011;3567;52.444;13.556;2024-03-02T11:16:37;31.27;;;23.27;;
7051;SDS011;3567;52.444;13.556;2024-03-02T11:19:08;32.22;;;22.38;;
7051;SDS011;3567;52.444;13.556;2024-03-02T11:21:38;31.98;;;23.50;;
7051;SDS011;3567;52.444;13.556;2024-03-02T11:24:48;34.10;;;23.48;;
7051;SDS011;3567;52.444;13.556;2024-03-02T11:27:01;29.45;;;21.38;;
7051;SDS011;3567;52.444;13.556;2024-03-02T11:32:04;29.30;;;21.05;;
7051;SDS011;3567;52.444;13.556;2024-03-02T11:34:43;28.70;;;22.23;;
7051;SDS011;3567;52.444;13.556;2024-03-02T11:37:14;30.30;;;20.20;;
7051;SDS011;3567;52.444;13.556;2024-03-02T11:39:42;26.60;;;19.35;;
7051;SDS011;3567;52.444;13.556;2024-03-02T11:42:09;24.00;;;19.50;;
7051;SDS011;3567;52.444;13.556;2024-03-02T11:44:36;25.70;;;19.20;;
7051;SDS011;3567;52.444;13.556;2024-03-02T11:47:06;24.05;;;18.17;;
7051;SDS011;3567;52.444;13.556;2024-03-02T11:49:36;21.73;;;18.17;;
7051;SDS011;3567;52.444;13.556;2024-03-02T11:52:06;30.33;;;17.92;;
7051;SDS011;3567;52.444;13.556;2024-03-02T11:54:32;22.63;;;17.40;;
7051;SDS011;3567;52.444;13.556;2024-03-02T11:57:02;22.10;;;17.35;;
7051;SDS011;3567;52.444;13.556;2024-03-02T11:59:30;23.17;;;18.10;;
7051;SDS011;3567;52.444;13.556;2024-03-02T12:01:56;22.38;;;16.80;;
7051;SDS011;3567;52.444;13.556;2024-03-02T12:04:23;20.23;;;17.45;;
7051;SDS011;3567;52.444;13.556;2024-03-02T12:06:55;19.63;;;15.20;;
7051;SDS011;3567;52.444;13.556;2024-03-02T12:09:21;18.50;;;14.20;;
7051;SDS011;3567;52.444;13.556;2024-03-02T12:11:47;15.23;;;12.63;;
7051;SDS011;3567;52.444;13.556;2024-03-02T12:14:12;17.40;;;14.25;;
7051;SDS011;3567;52.444;13.556;2024-03-02T12:16:38;17.40;;;13.63;;
7051;SDS011;3567;52.444;13.556;2024-03-02T12:19:04;15.40;;;12.85;;
7051;SDS011;3567;52.444;13.556;2024-03-02T12:21:31;15.52;;;13.45;;
7051;SDS011;3567;52.444;13.556;2024-03-02T12:23:56;15.27;;;12.95;;
7051;SDS011;3567;52.444;13.556;2024-03-02T12:26:22;18.52;;;14.75;;
7051;SDS011;3567;52.444;13.556;2024-03-02T12:28:47;17.35;;;14.02;;
7051;SDS011;3567;52.444;13.556;2024-03-02T12:31:13;16.00;;;14.02;;
7051;SDS011;3567;52.444;13.556;2024-03-02T12:33:39;16.17;;;13.55;;
7051;SDS011;3567;52.444;13.556;2024-03-02T12:36:09;18.67;;;14.55;;
7051;SDS011;3567;52.444;13.556;2024-03-02T12:38:37;15.40;;;13.52;;
7051;SDS011;3567;52.444;13.556;2024-03-02T12:41:02;17.88;;;14.73;;
7051;SDS011;3567;52.444;13.556;2024-03-02T12:43:31;19.00;;;14.68;;
7051;SDS011;3567;52.444;13.556;2024-03-02T12:45:56;17.08;;;14.93;;
7051;SDS011;3567;52.444;13.556;2024-03-02T12:48:23;21.77;;;16.25;;
7051;SDS011;3567;52.444;13.556;2024-03-02T12:50:48;21.40;;;15.50;;
7051;SDS011;3567;52.444;13.556;2024-03-02T12:53:14;20.00;;;14.88;;
7051;SDS011;3567;52.444;13.556;2024-03-02T12:55:41;15.75;;;13.93;;
7051;SDS011;3567;52.444;13.556;2024-03-02T12:58:07;17.38;;;15.20;;
7051;SDS011;3567;52.444;13.556;2024-03-02T13:00:32;15.93;;;12.95;;
7051;SDS011;3567;52.444;13.556;2024-03-02T13:03:00;15.98;;;13.52;;
7051;SDS011;3567;52.444;13.556;2024-03-02T13:05:31;15.80;;;12.60;;
7051;SDS011;3567;52.444;13.556;2024-03-02T13:07:58;14.10;;;12.23;;
7051;SDS011;3567;52.444;13.556;2024-03-02T13:10:24;16.48;;;13.00;;
7051;SDS011;3567;52.444;13.556;2024-03-02T13:12:50;13.32;;;10.82;;
7051;SDS011;3567;52.444;13.556;2024-03-02T13:15:15;17.48;;;11.95;;
7051;SDS011;3567;52.444;13.556;2024-03-02T13:17:41;16.33;;;13.30;;
7051;SDS011;3567;52.444;13.556;2024-03-02T13:20:06;14.63;;;12.25;;
7051;SDS011;3567;52.444;13.556;2024-03-02T13:22:35;16.65;;;12.88;;
7051;SDS011;3567;52.444;13.556;2024-03-02T13:25:01;13.77;;;12.20;;
7051;SDS011;3567;52.444;13.556;2024-03-02T13:27:29;14.55;;;11.45;;
7051;SDS011;3567;52.444;13.556;2024-03-02T13:29:56;20.45;;;15.05;;
7051;SDS011;3567;52.444;13.556;2024-03-02T13:32:21;14.63;;;13.10;;
7051;SDS011;3567;52.444;13.556;2024-03-02T13:34:49;13.90;;;11.27;;
7051;SDS011;3567;52.444;13.556;2024-03-02T13:37:14;12.23;;;10.13;;
7051;SDS011;3567;52.444;13.556;2024-03-02T13:39:40;11.13;;;9.65;;
7051;SDS011;3567;52.444;13.556;2024-03-02T13:42:07;14.30;;;10.68;;
7051;SDS011;3567;52.444;13.556;2024-03-02T13:44:34;20.08;;;15.20;;
7051;SDS011;3567;52.444;13.556;2024-03-02T13:47:00;20.67;;;15.05;;
7051;SDS011;3567;52.444;13.556;2024-03-02T13:49:26;25.02;;;17.65;;
7051;SDS011;3567;52.444;13.556;2024-03-02T13:52:05;18.77;;;14.45;;
7051;SDS011;3567;52.444;13.556;2024-03-02T13:54:42;19.17;;;13.70;;
7051;SDS011;3567;52.444;13.556;2024-03-02T13:57:09;25.20;;;19.65;;
7051;SDS011;3567;52.444;13.556;2024-03-02T13:59:36;15.52;;;13.73;;
7051;SDS011;3567;52.444;13.556;2024-03-02T14:02:02;15.95;;;12.48;;
7051;SDS011;3567;52.444;13.556;2024-03-02T14:04:32;12.45;;;10.77;;
7051;SDS011;3567;52.444;13.556;2024-03-02T14:06:59;15.35;;;12.90;;
7051;SDS011;3567;52.444;13.556;2024-03-02T14:09:24;26.05;;;18.85;;
7051;SDS011;3567;52.444;13.556;2024-03-02T14:11:50;17.00;;;12.45;;
7051;SDS011;3567;52.444;13.556;2024-03-02T14:14:19;16.52;;;13.25;;
7051;SDS011;3567;52.444;13.556;2024-03-02T14:16:44;20.38;;;16.00;;
7051;SDS011;3567;52.444;13.556;2024-03-02T14:19:10;17.48;;;13.73;;
7051;SDS011;3567;52.444;13.556;2024-03-02T14:21:37;22.08;;;16.63;;
7051;SDS011;3567;52.444;13.556;2024-03-02T14:24:03;14.20;;;12.07;;
7051;SDS011;3567;52.444;13.556;2024-03-02T14:26:28;13.63;;;10.75;;
7051;SDS011;3567;52.444;13.556;2024-03-02T14:28:54;15.40;;;9.95;;
7051;SDS011;3567;52.444;13.556;2024-03-02T14:31:20;12.38;;;9.00;;
7051;SDS011;3567;52.444;13.556;2024-03-02T14:33:46;12.82;;;9.32;;
7051;SDS011;3567;52.444;13.556;2024-03-02T14:36:11;14.77;;;10.35;;
7051;SDS011;3567;52.444;13.556;2024-03-02T14:38:37;14.27;;;10.52;;